sensor_id;sensor_type;location;lat;lon;timestamp;pressure;altitude;pressure_sealevel;temperature;humidity
55610;BME280;41486;52.502;13.486;2022-11-14T00:00:28;101845.72;;;6.82;100.00
55610;BME280;41486;52.502;13.486;2022-11-14T00:03:16;101838.75;;;6.82;100.00
55610;BME280;41486;52.502;13.486;2022-11-14T00:06:04;101839.94;;;6.73;100.00
55610;BME280;41486;52.502;13.486;2022-11-14T00:08:52;101838.09;;;6.77;100.00
55610;BME280;41486;52.502;13.486;2022-11-14T00:11:38;101834.59;;;6.76;100.00
55610;BME280;41486;52.502;13.486;2022-11-14T00:14:25;101841.53;;;6.77;100.00
55610;BME280;41486;52.502;13.486;2022-11-14T00:17:11;101825.81;;;6.57;100.00
55610;BME280;41486;52.502;13.486;2022-11-14T00:19:59;101825.31;;;6.69;100.00
55610;BME280;41486;52.502;13.486;2022-11-14T00:22:46;101825.59;;;6.84;100.00
55610;BME280;41486;52.502;13.486;2022-11-14T00:25:32;101818.16;;;6.52;100.00
55610;BME280;41486;52.502;13.486;2022-11-14T00:28:19;101812.69;;;6.58;100.00
55610;BME280;41486;52.502;13.486;2022-11-14T00:31:06;101819.91;;;6.74;100.00
55610;BME280;41486;52.502;13.486;2022-11-14T00:33:53;101815.66;;;6.71;100.00
55610;BME280;41486;52.502;13.486;2022-11-14T00:36:41;101804.50;;;6.66;100.00
55610;BME280;41486;52.502;13.486;2022-11-14T00:39:27;101808.78;;;6.69;100.00
55610;BME280;41486;52.502;13.486;2022-11-14T00:42:14;101800.94;;;6.69;100.00
55610;BME280;41486;52.502;13.486;2022-11-14T00:45:01;101810.03;;;6.81;100.00
55610;BME280;41486;52.502;13.486;2022-11-14T00:47:48;101803.25;;;6.54;100.00
55610;BME280;41486;52.502;13.486;2022-11-14T00:50:35;101789.00;;;6.61;100.00
55610;BME280;41486;52.502;13.486;2022-11-14T00:53:23;101787.50;;;6.56;100.00
55610;BME280;41486;52.502;13.486;2022-11-14T00:56:10;101786.78;;;6.52;100.00
55610;BME280;41486;52.502;13.486;2022-11-14T00:58:56;101782.69;;;6.45;100.00
55610;BME280;41486;52.502;13.486;2022-11-14T01:01:43;101785.25;;;6.46;100.00
55610;BME280;41486;52.502;13.486;2022-11-14T01:04:30;101781.94;;;6.63;100.00
55610;BME280;41486;52.502;13.486;2022-11-14T01:07:16;101770.56;;;6.65;100.00
55610;BME280;41486;52.502;13.486;2022-11-14T01:10:06;101772.59;;;6.58;100.00
55610;BME280;41486;52.502;13.486;2022-11-14T01:12:53;101778.41;;;6.44;100.00
55610;BME280;41486;52.502;13.486;2022-11-14T01:15:40;101770.75;;;6.17;100.00
55610;BME280;41486;52.502;13.486;2022-11-14T01:18:27;101760.59;;;6.09;100.00
55610;BME280;41486;52.502;13.486;2022-11-14T01:21:14;101764.19;;;6.29;100.00
55610;BME280;41486;52.502;13.486;2022-11-14T01:24:00;101760.09;;;6.22;100.00
55610;BME280;41486;52.502;13.486;2022-11-14T01:26:48;101761.31;;;6.35;100.00
55610;BME280;41486;52.502;13.486;2022-11-14T01:29:35;101752.31;;;5.98;100.00
55610;BME280;41486;52.502;13.486;2022-11-14T01:32:22;101750.19;;;6.08;100.00
55610;BME280;41486;52.502;13.486;2022-11-14T01:35:08;101747.13;;;6.20;100.00
55610;BME280;41486;52.502;13.486;2022-11-14T01:37:55;101744.25;;;6.04;100.00
55610;BME280;41486;52.502;13.486;2022-11-14T01:40:42;101739.75;;;6.08;100.00
55610;BME280;41486;52.502;13.486;2022-11-14T01:43:32;101740.53;;;6.10;100.00
55610;BME280;41486;52.502;13.486;2022-11-14T01:46:21;101729.28;;;6.08;100.00
55610;BME280;41486;52.502;13.486;2022-11-14T01:49:15;101726.25;;;6.19;100.00
55610;BME280;41486;52.502;13.486;2022-11-14T01:52:05;101727.66;;;6.05;100.00
55610;BME280;41486;52.502;13.486;2022-11-14T01:54:54;101724.25;;;6.03;100.00
55610;BME280;41486;52.502;13.486;2022-11-14T01:57:43;101722.41;;;6.27;100.00
55610;BME280;41486;52.502;13.486;2022-11-14T02:00:33;101721.28;;;6.33;100.00
55610;BME280;41486;52.502;13.486;2022-11-14T02:03:21;101711.91;;;6.29;100.00
55610;BME280;41486;52.502;13.486;2022-11-14T02:06:12;101710.66;;;6.38;100.00
55610;BME280;41486;52.502;13.486;2022-11-14T02:09:01;101705.81;;;6.28;100.00
55610;BME280;41486;52.502;13.486;2022-11-14T02:11:49;101707.03;;;6.20;100.00
55610;BME280;41486;52.502;13.486;2022-11-14T02:14:36;101704.88;;;6.29;100.00
55610;BME280;41486;52.502;13.486;2022-11-14T02:17:25;101700.72;;;6.25;100.00
55610;BME280;41486;52.502;13.486;2022-11-14T02:20:20;101692.16;;;6.22;100.00
55610;BME280;41486;52.502;13.486;2022-11-14T02:23:06;101689.03;;;6.55;100.00
55610;BME280;41486;52.502;13.486;2022-11-14T02:25:54;101689.81;;;6.36;100.00
55610;BME280;41486;52.502;13.486;2022-11-14T02:28:41;101677.19;;;6.25;100.00
55610;BME280;41486;52.502;13.486;2022-11-14T02:31:27;101684.56;;;6.36;100.00
55610;BME280;41486;52.502;13.486;2022-11-14T02:34:13;101683.84;;;6.53;100.00
55610;BME280;41486;52.502;13.486;2022-11-14T02:37:05;101680.91;;;6.20;100.00
55610;BME280;41486;52.502;13.486;2022-11-14T02:39:52;101670.53;;;6.39;100.00
55610;BME280;41486;52.502;13.486;2022-11-14T02:42:39;101670.00;;;6.51;100.00
55610;BME280;41486;52.502;13.486;2022-11-14T02:45:28;101664.38;;;6.19;100.00
55610;BME280;41486;52.502;13.486;2022-11-14T02:48:14;101659.34;;;6.35;100.00
55610;BME280;41486;52.502;13.486;2022-11-14T02:51:02;101659.59;;;6.29;100.00
55610;BME280;41486;52.502;13.486;2022-11-14T02:53:50;101660.44;;;6.29;100.00
55610;BME280;41486;52.502;13.486;2022-11-14T02:56:36;101656.06;;;6.09;100.00
55610;BME280;41486;52.502;13.486;2022-11-14T02:59:23;101661.06;;;6.15;100.00
55610;BME280;41486;52.502;13.486;2022-11-14T03:02:09;101653.97;;;6.18;100.00
55610;BME280;41486;52.502;13.486;2022-11-14T03:04:56;101647.38;;;6.29;100.00
55610;BME280;41486;52.502;13.486;2022-11-14T03:07:43;101649.69;;;6.17;100.00
55610;BME280;41486;52.502;13.486;2022-11-14T03:10:31;101640.50;;;6.06;100.00
55610;BME280;41486;52.502;13.486;2022-11-14T03:13:18;101635.81;;;6.14;100.00
55610;BME280;41486;52.502;13.486;2022-11-14T03:16:06;101644.28;;;5.99;100.00
55610;BME280;41486;52.502;13.486;2022-11-14T03:18:53;101634.03;;;6.15;100.00
55610;BME280;41486;52.502;13.486;2022-11-14T03:21:39;101635.44;;;6.24;100.00
55610;BME280;41486;52.502;13.486;2022-11-14T03:24:25;101634.38;;;6.28;100.00
55610;BME280;41486;52.502;13.486;2022-11-14T03:27:14;101627.00;;;6.17;100.00
55610;BME280;41486;52.502;13.486;2022-11-14T03:30:00;101634.19;;;6.12;100.00
55610;BME280;41486;52.502;13.486;2022-11-14T03:32:47;101640.44;;;6.08;100.00
55610;BME280;41486;52.502;13.486;2022-11-14T03:35:33;101631.16;;;6.00;100.00
55610;BME280;41486;52.502;13.486;2022-11-14T03:38:20;101621.84;;;6.15;100.00
55610;BME280;41486;52.502;13.486;2022-11-14T03:41:07;101616.66;;;6.14;100.00
55610;BME280;41486;52.502;13.486;2022-11-14T03:43:55;101614.75;;;6.18;100.00
55610;BME280;41486;52.502;13.486;2022-11-14T03:46:41;101598.81;;;6.03;100.00
55610;BME280;41486;52.502;13.486;2022-11-14T03:49:30;101613.03;;;6.18;100.00
55610;BME280;41486;52.502;13.486;2022-11-14T03:52:17;101605.97;;;5.98;100.00
55610;BME280;41486;52.502;13.486;2022-11-14T03:55:04;101608.69;;;5.74;100.00
55610;BME280;41486;52.502;13.486;2022-11-14T03:57:51;101600.28;;;5.88;100.00
55610;BME280;41486;52.502;13.486;2022-11-14T04:00:39;101601.75;;;5.95;100.00
55610;BME280;41486;52.502;13.486;2022-11-14T04:03:26;101600.78;;;6.19;100.00
55610;BME280;41486;52.502;13.486;2022-11-14T04:06:12;101598.34;;;5.93;100.00
55610;BME280;41486;52.502;13.486;2022-11-14T04:08:59;101600.78;;;5.76;100.00
55610;BME280;41486;52.502;13.486;2022-11-14T04:11:46;101593.84;;;5.97;100.00
55610;BME280;41486;52.502;13.486;2022-11-14T04:14:33;101599.88;;;5.97;100.00
55610;BME280;41486;52.502;13.486;2022-11-14T04:17:20;101592.47;;;5.88;100.00
55610;BME280;41486;52.502;13.486;2022-11-14T04:20:08;101580.53;;;6.03;100.00
55610;BME280;41486;52.502;13.486;2022-11-14T04:22:55;101584.59;;;6.10;100.00
55610;BME280;41486;52.502;13.486;2022-11-14T04:25:42;101585.34;;;5.92;100.00
55610;BME280;41486;52.502;13.486;2022-11-14T04:28:28;101575.13;;;5.85;100.00
55610;BME280;41486;52.502;13.486;2022-11-14T04:31:15;101580.25;;;5.66;100.00
55610;BME280;41486;52.502;13.486;2022-11-14T04:34:03;101583.47;;;5.73;100.00
55610;BME280;41486;52.502;13.486;2022-11-14T04:36:50;101581.84;;;5.71;100.00
55610;BME280;41486;52.502;13.486;2022-11-14T04:39:37;101575.91;;;5.67;100.00
55610;BME280;41486;52.502;13.486;2022-11-14T04:42:24;101566.63;;;6.03;100.00
55610;BME280;41486;52.502;13.486;2022-11-14T04:45:10;101564.38;;;5.93;100.00
55610;BME280;41486;52.502;13.486;2022-11-14T04:47:57;101577.13;;;6.01;100.00
55610;BME280;41486;52.502;13.486;2022-11-14T04:50:45;101566.75;;;5.99;100.00
55610;BME280;41486;52.502;13.486;2022-11-14T04:53:32;101559.69;;;6.02;100.00
55610;BME280;41486;52.502;13.486;2022-11-14T04:56:18;101579.00;;;5.97;100.00
55610;BME280;41486;52.502;13.486;2022-11-14T04:59:07;101564.44;;;5.92;100.00
55610;BME280;41486;52.502;13.486;2022-11-14T05:01:53;101568.28;;;5.83;100.00
55610;BME280;41486;52.502;13.486;2022-11-14T05:04:40;101569.91;;;5.85;100.00
55610;BME280;41486;52.502;13.486;2022-11-14T05:07:29;101558.25;;;5.94;100.00
55610;BME280;41486;52.502;13.486;2022-11-14T05:10:16;101561.94;;;5.89;100.00
55610;BME280;41486;52.502;13.486;2022-11-14T05:13:03;101564.03;;;6.03;100.00
55610;BME280;41486;52.502;13.486;2022-11-14T05:15:50;101564.69;;;5.85;100.00
55610;BME280;41486;52.502;13.486;2022-11-14T05:18:36;101564.69;;;5.85;100.00
55610;BME280;41486;52.502;13.486;2022-11-14T05:21:30;101555.94;;;5.87;100.00
55610;BME280;41486;52.502;13.486;2022-11-14T05:24:19;101558.31;;;5.93;100.00
55610;BME280;41486;52.502;13.486;2022-11-14T05:27:05;101561.94;;;5.89;100.00
55610;BME280;41486;52.502;13.486;2022-11-14T05:29:52;101552.28;;;5.91;100.00
55610;BME280;41486;52.502;13.486;2022-11-14T05:32:39;101554.91;;;5.91;100.00
55610;BME280;41486;52.502;13.486;2022-11-14T05:35:26;101557.09;;;5.79;100.00
55610;BME280;41486;52.502;13.486;2022-11-14T05:38:13;101554.13;;;5.89;100.00
55610;BME280;41486;52.502;13.486;2022-11-14T05:41:04;101551.19;;;5.96;100.00
55610;BME280;41486;52.502;13.486;2022-11-14T05:43:51;101556.78;;;5.87;100.00
55610;BME280;41486;52.502;13.486;2022-11-14T05:46:38;101557.09;;;5.79;100.00
55610;BME280;41486;52.502;13.486;2022-11-14T05:49:24;101561.25;;;6.06;100.00
55610;BME280;41486;52.502;13.486;2022-11-14T05:52:11;101551.59;;;6.08;100.00
55610;BME280;41486;52.502;13.486;2022-11-14T05:54:58;101549.69;;;6.11;100.00
55610;BME280;41486;52.502;13.486;2022-11-14T05:57:46;101552.03;;;5.97;100.00
55610;BME280;41486;52.502;13.486;2022-11-14T06:00:33;101549.13;;;6.05;100.00
55610;BME280;41486;52.502;13.486;2022-11-14T06:03:32;101533.75;;;5.97;100.00
55610;BME280;41486;52.502;13.486;2022-11-14T06:06:20;101540.31;;;6.07;100.00
55610;BME280;41486;52.502;13.486;2022-11-14T06:09:06;101532.47;;;6.07;100.00
55610;BME280;41486;52.502;13.486;2022-11-14T06:11:53;101534.63;;;6.18;100.00
55610;BME280;41486;52.502;13.486;2022-11-14T06:14:41;101524.44;;;6.12;100.00
55610;BME280;41486;52.502;13.486;2022-11-14T06:17:27;101530.28;;;5.96;100.00
55610;BME280;41486;52.502;13.486;2022-11-14T06:20:14;101531.41;;;6.11;100.00
55610;BME280;41486;52.502;13.486;2022-11-14T06:23:00;101533.97;;;5.70;100.00
55610;BME280;41486;52.502;13.486;2022-11-14T06:25:47;101531.25;;;5.94;100.00
55610;BME280;41486;52.502;13.486;2022-11-14T06:28:34;101538.06;;;5.98;100.00
55610;BME280;41486;52.502;13.486;2022-11-14T06:31:23;101533.84;;;5.94;100.00
55610;BME280;41486;52.502;13.486;2022-11-14T06:34:10;101527.97;;;6.11;100.00
55610;BME280;41486;52.502;13.486;2022-11-14T06:36:57;101529.44;;;5.75;100.00
55610;BME280;41486;52.502;13.486;2022-11-14T06:39:44;101536.84;;;5.64;100.00
55610;BME280;41486;52.502;13.486;2022-11-14T06:42:31;101535.41;;;5.77;100.00
55610;BME280;41486;52.502;13.486;2022-11-14T06:45:17;101540.88;;;5.73;100.00
55610;BME280;41486;52.502;13.486;2022-11-14T06:48:06;101542.19;;;6.04;100.00
55610;BME280;41486;52.502;13.486;2022-11-14T06:50:53;101535.91;;;5.87;100.00
55610;BME280;41486;52.502;13.486;2022-11-14T06:53:40;101546.00;;;5.74;100.00
55610;BME280;41486;52.502;13.486;2022-11-14T06:56:27;101541.63;;;5.75;100.00
55610;BME280;41486;52.502;13.486;2022-11-14T06:59:13;101536.91;;;6.05;100.00
55610;BME280;41486;52.502;13.486;2022-11-14T07:02:00;101536.94;;;5.83;100.00
55610;BME280;41486;52.502;13.486;2022-11-14T07:04:47;101538.97;;;6.18;100.00
55610;BME280;41486;52.502;13.486;2022-11-14T07:07:34;101536.34;;;6.38;100.00
55610;BME280;41486;52.502;13.486;2022-11-14T07:10:21;101532.94;;;6.36;100.00
55610;BME280;41486;52.502;13.486;2022-11-14T07:13:07;101541.94;;;6.10;100.00
55610;BME280;41486;52.502;13.486;2022-11-14T07:15:55;101553.72;;;5.98;100.00
55610;BME280;41486;52.502;13.486;2022-11-14T07:18:42;101554.34;;;6.05;100.00
55610;BME280;41486;52.502;13.486;2022-11-14T07:21:31;101561.47;;;6.22;100.00
55610;BME280;41486;52.502;13.486;2022-11-14T07:24:18;101546.72;;;5.98;100.00
55610;BME280;41486;52.502;13.486;2022-11-14T07:27:05;101536.00;;;6.06;100.00
55610;BME280;41486;52.502;13.486;2022-11-14T07:29:53;101534.09;;;6.10;100.00
55610;BME280;41486;52.502;13.486;2022-11-14T07:32:40;101531.88;;;6.00;100.00
55610;BME280;41486;52.502;13.486;2022-11-14T07:35:26;101533.03;;;5.93;100.00
55610;BME280;41486;52.502;13.486;2022-11-14T07:38:14;101534.56;;;5.99;100.00
55610;BME280;41486;52.502;13.486;2022-11-14T07:41:02;101529.50;;;5.94;100.00
55610;BME280;41486;52.502;13.486;2022-11-14T07:43:49;101534.28;;;6.05;100.00
55610;BME280;41486;52.502;13.486;2022-11-14T07:46:35;101528.50;;;6.18;100.00
55610;BME280;41486;52.502;13.486;2022-11-14T07:49:22;101521.75;;;6.13;100.00
55610;BME280;41486;52.502;13.486;2022-11-14T07:52:09;101524.16;;;6.18;100.00
55610;BME280;41486;52.502;13.486;2022-11-14T07:54:57;101531.19;;;5.95;100.00
55610;BME280;41486;52.502;13.486;2022-11-14T07:57:43;101525.72;;;6.02;100.00
55610;BME280;41486;52.502;13.486;2022-11-14T08:00:34;101523.03;;;6.24;100.00
55610;BME280;41486;52.502;13.486;2022-11-14T08:03:21;101532.72;;;6.22;100.00
55610;BME280;41486;52.502;13.486;2022-11-14T08:06:09;101528.31;;;6.43;100.00
55610;BME280;41486;52.502;13.486;2022-11-14T08:08:56;101518.66;;;6.24;100.00
55610;BME280;41486;52.502;13.486;2022-11-14T08:11:44;101521.84;;;6.31;100.00
55610;BME280;41486;52.502;13.486;2022-11-14T08:14:38;101514.84;;;6.31;100.00
55610;BME280;41486;52.502;13.486;2022-11-14T08:17:25;101521.22;;;6.45;100.00
55610;BME280;41486;52.502;13.486;2022-11-14T08:20:12;101520.31;;;6.06;100.00
55610;BME280;41486;52.502;13.486;2022-11-14T08:23:02;101516.63;;;6.10;100.00
55610;BME280;41486;52.502;13.486;2022-11-14T08:25:54;101522.06;;;6.26;100.00
55610;BME280;41486;52.502;13.486;2022-11-14T08:28:44;101518.88;;;6.39;100.00
55610;BME280;41486;52.502;13.486;2022-11-14T08:31:30;101519.34;;;6.49;100.00
55610;BME280;41486;52.502;13.486;2022-11-14T08:34:17;101509.31;;;6.58;100.00
55610;BME280;41486;52.502;13.486;2022-11-14T08:37:06;101511.53;;;6.66;100.00
55610;BME280;41486;52.502;13.486;2022-11-14T08:39:53;101509.91;;;6.83;100.00
55610;BME280;41486;52.502;13.486;2022-11-14T08:42:40;101511.69;;;6.04;100.00
55610;BME280;41486;52.502;13.486;2022-11-14T08:45:28;101513.44;;;6.24;100.00
55610;BME280;41486;52.502;13.486;2022-11-14T08:48:15;101502.06;;;6.44;100.00
55610;BME280;41486;52.502;13.486;2022-11-14T08:51:03;101497.22;;;6.37;100.00
55610;BME280;41486;52.502;13.486;2022-11-14T08:53:49;101494.66;;;6.54;100.00
55610;BME280;41486;52.502;13.486;2022-11-14T08:56:36;101502.50;;;6.73;100.00
55610;BME280;41486;52.502;13.486;2022-11-14T08:59:23;101499.25;;;6.68;100.00
55610;BME280;41486;52.502;13.486;2022-11-14T09:02:11;101500.44;;;6.80;100.00
55610;BME280;41486;52.502;13.486;2022-11-14T09:04:58;101491.59;;;6.83;100.00
55610;BME280;41486;52.502;13.486;2022-11-14T09:07:45;101487.28;;;7.01;100.00
55610;BME280;41486;52.502;13.486;2022-11-14T09:10:31;101492.28;;;7.05;100.00
55610;BME280;41486;52.502;13.486;2022-11-14T09:13:18;101489.47;;;6.91;100.00
55610;BME280;41486;52.502;13.486;2022-11-14T09:16:05;101484.47;;;6.86;100.00
55610;BME280;41486;52.502;13.486;2022-11-14T09:18:53;101487.72;;;6.91;100.00
55610;BME280;41486;52.502;13.486;2022-11-14T09:21:40;101480.91;;;7.06;100.00
55610;BME280;41486;52.502;13.486;2022-11-14T09:24:26;101478.94;;;6.73;100.00
55610;BME280;41486;52.502;13.486;2022-11-14T09:27:13;101473.97;;;7.05;100.00
55610;BME280;41486;52.502;13.486;2022-11-14T09:30:02;101467.94;;;6.86;100.00
55610;BME280;41486;52.502;13.486;2022-11-14T09:32:49;101470.75;;;6.81;100.00
55610;BME280;41486;52.502;13.486;2022-11-14T09:35:37;101474.56;;;6.93;100.00
55610;BME280;41486;52.502;13.486;2022-11-14T09:38:24;101473.59;;;7.13;100.00
55610;BME280;41486;52.502;13.486;2022-11-14T09:41:33;101477.31;;;7.44;100.00
55610;BME280;41486;52.502;13.486;2022-11-14T09:44:37;101480.72;;;7.46;100.00
55610;BME280;41486;52.502;13.486;2022-11-14T09:47:30;101476.88;;;7.53;100.00
55610;BME280;41486;52.502;13.486;2022-11-14T09:50:23;101474.09;;;7.56;100.00
55610;BME280;41486;52.502;13.486;2022-11-14T09:53:21;101474.00;;;7.40;100.00
55610;BME280;41486;52.502;13.486;2022-11-14T09:56:12;101473.88;;;7.44;100.00
55610;BME280;41486;52.502;13.486;2022-11-14T09:59:01;101457.44;;;7.57;100.00
55610;BME280;41486;52.502;13.486;2022-11-14T10:01:52;101452.50;;;7.86;100.00
55610;BME280;41486;52.502;13.486;2022-11-14T10:04:49;101452.94;;;7.95;100.00
55610;BME280;41486;52.502;13.486;2022-11-14T10:07:52;101453.97;;;7.92;100.00
55610;BME280;41486;52.502;13.486;2022-11-14T10:10:51;101442.84;;;7.87;100.00
55610;BME280;41486;52.502;13.486;2022-11-14T10:17:13;101430.28;;;7.94;100.00
55610;BME280;41486;52.502;13.486;2022-11-14T10:20:13;101422.19;;;8.14;100.00
55610;BME280;41486;52.502;13.486;2022-11-14T10:23:12;101419.94;;;7.90;100.00
55610;BME280;41486;52.502;13.486;2022-11-14T10:26:08;101423.81;;;8.33;100.00
55610;BME280;41486;52.502;13.486;2022-11-14T10:29:16;101423.56;;;8.37;100.00
55610;BME280;41486;52.502;13.486;2022-11-14T10:32:15;101425.28;;;8.55;100.00
55610;BME280;41486;52.502;13.486;2022-11-14T10:35:10;101420.63;;;8.92;100.00
55610;BME280;41486;52.502;13.486;2022-11-14T10:38:03;101425.50;;;8.98;100.00
55610;BME280;41486;52.502;13.486;2022-11-14T10:40:54;101425.09;;;8.90;100.00
55610;BME280;41486;52.502;13.486;2022-11-14T10:43:46;101418.97;;;9.05;100.00
55610;BME280;41486;52.502;13.486;2022-11-14T10:46:35;101414.25;;;8.96;100.00
55610;BME280;41486;52.502;13.486;2022-11-14T10:49:24;101407.81;;;9.02;100.00
55610;BME280;41486;52.502;13.486;2022-11-14T10:52:13;101405.75;;;9.07;100.00
55610;BME280;41486;52.502;13.486;2022-11-14T10:55:05;101387.97;;;9.57;97.55
55610;BME280;41486;52.502;13.486;2022-11-14T10:57:54;101386.81;;;9.75;95.35
55610;BME280;41486;52.502;13.486;2022-11-14T11:00:46;101397.31;;;10.19;92.52
55610;BME280;41486;52.502;13.486;2022-11-14T11:03:40;101384.09;;;9.62;94.71
55610;BME280;41486;52.502;13.486;2022-11-14T11:06:27;101381.72;;;10.16;92.46
55610;BME280;41486;52.502;13.486;2022-11-14T11:09:16;101388.53;;;11.02;88.94
55610;BME280;41486;52.502;13.486;2022-11-14T11:12:40;101385.13;;;11.53;83.14
55610;BME280;41486;52.502;13.486;2022-11-14T11:15:30;101375.69;;;12.86;77.67
55610;BME280;41486;52.502;13.486;2022-11-14T11:18:27;101377.72;;;13.65;70.41
55610;BME280;41486;52.502;13.486;2022-11-14T11:21:16;101364.84;;;13.72;69.27
55610;BME280;41486;52.502;13.486;2022-11-14T11:24:03;101360.78;;;14.78;65.59
55610;BME280;41486;52.502;13.486;2022-11-14T11:27:11;101368.44;;;14.05;67.02
55610;BME280;41486;52.502;13.486;2022-11-14T11:30:17;101367.63;;;12.76;73.07
55610;BME280;41486;52.502;13.486;2022-11-14T11:33:22;101367.09;;;11.34;82.34
55610;BME280;41486;52.502;13.486;2022-11-14T11:36:11;101358.09;;;11.11;84.21
55610;BME280;41486;52.502;13.486;2022-11-14T11:38:59;101356.47;;;10.95;84.98
55610;BME280;41486;52.502;13.486;2022-11-14T11:41:45;101346.97;;;10.80;85.50
55610;BME280;41486;52.502;13.486;2022-11-14T11:44:57;101343.91;;;10.73;86.81
55610;BME280;41486;52.502;13.486;2022-11-14T11:47:53;101328.47;;;10.94;86.32
55610;BME280;41486;52.502;13.486;2022-11-14T11:50:41;101326.16;;;11.02;86.28
55610;BME280;41486;52.502;13.486;2022-11-14T11:53:33;101327.97;;;11.02;84.87
55610;BME280;41486;52.502;13.486;2022-11-14T11:56:25;101326.66;;;10.82;86.41
55610;BME280;41486;52.502;13.486;2022-11-14T11:59:25;101314.38;;;11.21;85.79
55610;BME280;41486;52.502;13.486;2022-11-14T12:02:20;101315.00;;;11.25;83.92
55610;BME280;41486;52.502;13.486;2022-11-14T12:05:12;101314.25;;;11.48;81.92
55610;BME280;41486;52.502;13.486;2022-11-14T12:08:03;101312.97;;;12.17;79.94
55610;BME280;41486;52.502;13.486;2022-11-14T12:10:53;101317.53;;;12.39;78.65
55610;BME280;41486;52.502;13.486;2022-11-14T12:17:15;101310.22;;;15.65;62.04
55610;BME280;41486;52.502;13.486;2022-11-14T12:20:31;101315.41;;;17.43;55.28
55610;BME280;41486;52.502;13.486;2022-11-14T12:23:55;101324.38;;;16.55;55.99
55610;BME280;41486;52.502;13.486;2022-11-14T12:27:07;101319.47;;;16.70;55.18
55610;BME280;41486;52.502;13.486;2022-11-14T12:30:09;101319.22;;;16.53;56.27
55610;BME280;41486;52.502;13.486;2022-11-14T12:33:01;101324.06;;;17.07;53.99
55610;BME280;41486;52.502;13.486;2022-11-14T12:36:15;101323.13;;;16.49;55.91
55610;BME280;41486;52.502;13.486;2022-11-14T12:39:02;101326.31;;;16.72;54.88
55610;BME280;41486;52.502;13.486;2022-11-14T12:41:49;101319.88;;;17.14;53.86
55610;BME280;41486;52.502;13.486;2022-11-14T12:44:38;101317.69;;;17.38;53.72
55610;BME280;41486;52.502;13.486;2022-11-14T12:47:26;101314.47;;;17.34;53.06
55610;BME280;41486;52.502;13.486;2022-11-14T12:50:31;101311.41;;;17.94;51.99
55610;BME280;41486;52.502;13.486;2022-11-14T12:53:41;101313.88;;;18.96;48.69
55610;BME280;41486;52.502;13.486;2022-11-14T12:56:54;101304.81;;;16.36;55.28
55610;BME280;41486;52.502;13.486;2022-11-14T12:59:51;101305.50;;;16.68;54.41
55610;BME280;41486;52.502;13.486;2022-11-14T13:03:04;101307.44;;;16.17;55.96
55610;BME280;41486;52.502;13.486;2022-11-14T13:05:58;101300.22;;;14.52;63.14
55610;BME280;41486;52.502;13.486;2022-11-14T13:09:02;101305.25;;;14.12;65.30
55610;BME280;41486;52.502;13.486;2022-11-14T13:11:51;101300.25;;;14.09;66.32
55610;BME280;41486;52.502;13.486;2022-11-14T13:15:20;101298.88;;;13.59;68.64
55610;BME280;41486;52.502;13.486;2022-11-14T13:18:50;101296.78;;;13.29;71.08
55610;BME280;41486;52.502;13.486;2022-11-14T13:22:32;101287.38;;;13.02;72.65
55610;BME280;41486;52.502;13.486;2022-11-14T13:25:22;101291.75;;;12.78;73.18
55610;BME280;41486;52.502;13.486;2022-11-14T13:28:42;101282.63;;;12.71;73.94
55610;BME280;41486;52.502;13.486;2022-11-14T13:31:47;101281.75;;;12.59;74.02
55610;BME280;41486;52.502;13.486;2022-11-14T13:34:41;101283.66;;;12.57;74.27
55610;BME280;41486;52.502;13.486;2022-11-14T13:37:46;101281.41;;;12.40;75.74
55610;BME280;41486;52.502;13.486;2022-11-14T13:40:45;101277.09;;;12.39;75.76
55610;BME280;41486;52.502;13.486;2022-11-14T13:46:57;101262.06;;;12.63;75.41
55610;BME280;41486;52.502;13.486;2022-11-14T13:49:54;101270.03;;;12.39;76.99
55610;BME280;41486;52.502;13.486;2022-11-14T13:52:45;101270.88;;;12.40;76.40
55610;BME280;41486;52.502;13.486;2022-11-14T13:55:38;101257.09;;;12.12;78.24
55610;BME280;41486;52.502;13.486;2022-11-14T14:02:27;101253.75;;;11.97;78.61
55610;BME280;41486;52.502;13.486;2022-11-14T14:05:26;101252.31;;;11.80;80.01
55610;BME280;41486;52.502;13.486;2022-11-14T14:08:32;101260.13;;;11.68;81.24
55610;BME280;41486;52.502;13.486;2022-11-14T14:11:34;101244.94;;;11.72;81.18
55610;BME280;41486;52.502;13.486;2022-11-14T14:14:48;101253.72;;;11.73;80.90
55610;BME280;41486;52.502;13.486;2022-11-14T14:17:49;101250.03;;;11.62;81.59
55610;BME280;41486;52.502;13.486;2022-11-14T14:20:44;101245.28;;;11.67;81.77
55610;BME280;41486;52.502;13.486;2022-11-14T14:23:41;101238.69;;;11.49;82.60
55610;BME280;41486;52.502;13.486;2022-11-14T14:26:38;101240.72;;;11.32;83.88
55610;BME280;41486;52.502;13.486;2022-11-14T14:29:42;101237.47;;;11.16;85.27
55610;BME280;41486;52.502;13.486;2022-11-14T14:32:30;101226.31;;;11.12;85.25
55610;BME280;41486;52.502;13.486;2022-11-14T14:35:26;101230.50;;;11.02;85.94
55610;BME280;41486;52.502;13.486;2022-11-14T14:38:25;101232.53;;;10.98;86.54
55610;BME280;41486;52.502;13.486;2022-11-14T14:41:13;101223.44;;;11.28;85.58
55610;BME280;41486;52.502;13.486;2022-11-14T14:44:02;101219.03;;;11.03;86.12
55610;BME280;41486;52.502;13.486;2022-11-14T14:46:50;101227.75;;;10.78;88.11
55610;BME280;41486;52.502;13.486;2022-11-14T14:49:38;101219.66;;;10.68;89.33
55610;BME280;41486;52.502;13.486;2022-11-14T14:52:29;101223.34;;;10.65;89.90
55610;BME280;41486;52.502;13.486;2022-11-14T14:55:19;101217.75;;;10.57;90.23